sensor_id;sensor_type;location;lat;lon;timestamp;P1;durP1;ratioP1;P2;durP2;ratioP2
31676;SDS011;18385;51.572;6.578;2023-11-21T00:01:01;10.32;;;5.07;;
31676;SDS011;18385;51.572;6.578;2023-11-21T00:03:29;9.93;;;4.25;;
31676;SDS011;18385;51.572;6.578;2023-11-21T00:05:55;16.38;;;4.60;;
31676;SDS011;18385;51.572;6.578;2023-11-21T00:08:21;16.00;;;4.72;;
31676;SDS011;18385;51.572;6.578;2023-11-21T00:10:46;12.60;;;4.20;;
31676;SDS011;18385;51.572;6.578;2023-11-21T00:13:13;13.57;;;5.03;;
31676;SDS011;18385;51.572;6.578;2023-11-21T00:15:39;11.70;;;5.00;;
31676;SDS011;18385;51.572;6.578;2023-11-21T00:18:05;11.60;;;4.40;;
31676;SDS011;18385;51.572;6.578;2023-11-21T00:20:31;13.05;;;5.07;;
31676;SDS011;18385;51.572;6.578;2023-11-21T00:22:57;15.25;;;4.75;;
31676;SDS011;18385;51.572;6.578;2023-11-21T00:25:22;14.52;;;4.95;;
31676;SDS011;18385;51.572;6.578;2023-11-21T00:27:49;16.08;;;5.18;;
31676;SDS011;18385;51.572;6.578;2023-11-21T00:30:15;15.90;;;4.88;;
31676;SDS011;18385;51.572;6.578;2023-11-21T00:32:40;10.95;;;4.68;;
31676;SDS011;18385;51.572;6.578;2023-11-21T00:35:06;14.38;;;4.40;;
31676;SDS011;18385;51.572;6.578;2023-11-21T00:37:32;15.60;;;5.03;;
31676;SDS011;18385;51.572;6.578;2023-11-21T00:39:58;12.57;;;4.55;;
31676;SDS011;18385;51.572;6.578;2023-11-21T00:42:23;9.45;;;4.75;;
31676;SDS011;18385;51.572;6.578;2023-11-21T00:44:50;13.23;;;4.95;;
31676;SDS011;18385;51.572;6.578;2023-11-21T00:47:15;12.50;;;4.70;;
31676;SDS011;18385;51.572;6.578;2023-11-21T00:49:41;13.20;;;5.20;;
31676;SDS011;18385;51.572;6.578;2023-11-21T00:52:08;15.95;;;5.20;;
31676;SDS011;18385;51.572;6.578;2023-11-21T00:54:33;13.25;;;4.68;;
31676;SDS011;18385;51.572;6.578;2023-11-21T00:56:59;11.75;;;5.03;;
31676;SDS011;18385;51.572;6.578;2023-11-21T00:59:25;11.23;;;4.32;;
31676;SDS011;18385;51.572;6.578;2023-11-21T01:01:51;12.50;;;5.32;;
31676;SDS011;18385;51.572;6.578;2023-11-21T01:04:16;10.40;;;5.07;;
31676;SDS011;18385;51.572;6.578;2023-11-21T01:06:42;11.73;;;4.70;;
31676;SDS011;18385;51.572;6.578;2023-11-21T01:09:08;12.18;;;5.30;;
31676;SDS011;18385;51.572;6.578;2023-11-21T01:11:34;9.95;;;4.78;;
31676;SDS011;18385;51.572;6.578;2023-11-21T01:14:02;16.23;;;5.32;;
31676;SDS011;18385;51.572;6.578;2023-11-21T01:16:30;12.15;;;5.82;;
31676;SDS011;18385;51.572;6.578;2023-11-21T01:18:57;11.95;;;4.88;;
31676;SDS011;18385;51.572;6.578;2023-11-21T01:21:24;12.70;;;5.25;;
31676;SDS011;18385;51.572;6.578;2023-11-21T01:23:50;13.30;;;5.22;;
31676;SDS011;18385;51.572;6.578;2023-11-21T01:26:16;11.68;;;5.28;;
31676;SDS011;18385;51.572;6.578;2023-11-21T01:28:41;9.73;;;4.53;;
31676;SDS011;18385;51.572;6.578;2023-11-21T01:31:07;12.82;;;5.68;;
31676;SDS011;18385;51.572;6.578;2023-11-21T01:33:33;18.33;;;5.78;;
31676;SDS011;18385;51.572;6.578;2023-11-21T01:35:58;16.98;;;5.70;;
31676;SDS011;18385;51.572;6.578;2023-11-21T01:38:25;13.38;;;5.68;;
31676;SDS011;18385;51.572;6.578;2023-11-21T01:40:51;9.60;;;4.95;;
31676;SDS011;18385;51.572;6.578;2023-11-21T01:43:17;11.57;;;6.22;;
31676;SDS011;18385;51.572;6.578;2023-11-21T01:45:43;11.02;;;4.80;;
31676;SDS011;18385;51.572;6.578;2023-11-21T01:48:10;18.00;;;5.93;;
31676;SDS011;18385;51.572;6.578;2023-11-21T01:50:37;18.63;;;5.65;;
31676;SDS011;18385;51.572;6.578;2023-11-21T01:53:03;11.68;;;4.97;;
31676;SDS011;18385;51.572;6.578;2023-11-21T01:55:29;15.05;;;5.45;;
31676;SDS011;18385;51.572;6.578;2023-11-21T01:57:55;11.82;;;5.05;;
31676;SDS011;18385;51.572;6.578;2023-11-21T02:00:24;12.68;;;5.78;;
31676;SDS011;18385;51.572;6.578;2023-11-21T02:02:54;17.60;;;5.50;;
31676;SDS011;18385;51.572;6.578;2023-11-21T02:05:21;13.60;;;6.22;;
31676;SDS011;18385;51.572;6.578;2023-11-21T02:07:47;14.88;;;6.30;;
31676;SDS011;18385;51.572;6.578;2023-11-21T02:10:14;16.45;;;6.05;;
31676;SDS011;18385;51.572;6.578;2023-11-21T02:12:41;14.85;;;6.10;;
31676;SDS011;18385;51.572;6.578;2023-11-21T02:15:08;16.67;;;6.20;;
31676;SDS011;18385;51.572;6.578;2023-11-21T02:17:41;15.45;;;5.97;;
31676;SDS011;18385;51.572;6.578;2023-11-21T02:20:12;17.23;;;6.05;;
31676;SDS011;18385;51.572;6.578;2023-11-21T02:22:42;14.50;;;6.18;;
31676;SDS011;18385;51.572;6.578;2023-11-21T02:25:09;16.27;;;6.03;;
31676;SDS011;18385;51.572;6.578;2023-11-21T02:27:34;14.65;;;5.35;;
31676;SDS011;18385;51.572;6.578;2023-11-21T02:30:01;24.13;;;7.75;;
31676;SDS011;18385;51.572;6.578;2023-11-21T02:32:29;16.58;;;6.25;;
31676;SDS011;18385;51.572;6.578;2023-11-21T02:34:57;21.13;;;7.15;;
31676;SDS011;18385;51.572;6.578;2023-11-21T02:37:26;16.37;;;6.27;;
31676;SDS011;18385;51.572;6.578;2023-11-21T02:39:52;20.90;;;6.35;;
31676;SDS011;18385;51.572;6.578;2023-11-21T02:42:17;16.33;;;6.32;;
31676;SDS011;18385;51.572;6.578;2023-11-21T02:44:43;20.55;;;7.07;;
31676;SDS011;18385;51.572;6.578;2023-11-21T02:47:09;24.85;;;8.15;;
31676;SDS011;18385;51.572;6.578;2023-11-21T02:49:35;17.08;;;7.47;;
31676;SDS011;18385;51.572;6.578;2023-11-21T02:52:01;20.45;;;7.00;;
31676;SDS011;18385;51.572;6.578;2023-11-21T02:54:27;21.23;;;7.78;;
31676;SDS011;18385;51.572;6.578;2023-11-21T02:56:52;19.60;;;7.47;;
31676;SDS011;18385;51.572;6.578;2023-11-21T02:59:18;24.08;;;7.60;;
31676;SDS011;18385;51.572;6.578;2023-11-21T03:01:45;23.20;;;8.45;;
31676;SDS011;18385;51.572;6.578;2023-11-21T03:04:11;20.60;;;8.48;;
31676;SDS011;18385;51.572;6.578;2023-11-21T03:06:44;19.88;;;8.02;;
31676;SDS011;18385;51.572;6.578;2023-11-21T03:09:10;20.75;;;7.53;;
31676;SDS011;18385;51.572;6.578;2023-11-21T03:11:39;22.13;;;7.68;;
31676;SDS011;18385;51.572;6.578;2023-11-21T03:14:05;20.65;;;7.90;;
31676;SDS011;18385;51.572;6.578;2023-11-21T03:16:31;21.60;;;7.68;;
31676;SDS011;18385;51.572;6.578;2023-11-21T03:18:57;19.58;;;7.50;;
31676;SDS011;18385;51.572;6.578;2023-11-21T03:21:24;21.67;;;7.88;;
31676;SDS011;18385;51.572;6.578;2023-11-21T03:23:50;20.65;;;8.35;;
31676;SDS011;18385;51.572;6.578;2023-11-21T03:26:16;21.23;;;7.28;;
31676;SDS011;18385;51.572;6.578;2023-11-21T03:28:42;20.30;;;7.88;;
31676;SDS011;18385;51.572;6.578;2023-11-21T03:31:07;21.17;;;8.40;;
31676;SDS011;18385;51.572;6.578;2023-11-21T03:33:34;22.17;;;8.13;;
31676;SDS011;18385;51.572;6.578;2023-11-21T03:36:00;26.60;;;8.18;;
31676;SDS011;18385;51.572;6.578;2023-11-21T03:38:26;29.73;;;10.40;;
31676;SDS011;18385;51.572;6.578;2023-11-21T03:40:52;21.70;;;8.95;;
31676;SDS011;18385;51.572;6.578;2023-11-21T03:43:18;27.50;;;9.10;;
31676;SDS011;18385;51.572;6.578;2023-11-21T03:45:44;25.30;;;9.55;;
31676;SDS011;18385;51.572;6.578;2023-11-21T03:48:09;26.63;;;10.52;;
31676;SDS011;18385;51.572;6.578;2023-11-21T03:50:37;27.05;;;9.27;;
31676;SDS011;18385;51.572;6.578;2023-11-21T03:53:05;22.88;;;8.20;;
31676;SDS011;18385;51.572;6.578;2023-11-21T03:55:30;35.78;;;9.95;;
31676;SDS011;18385;51.572;6.578;2023-11-21T03:57:57;29.55;;;9.60;;
31676;SDS011;18385;51.572;6.578;2023-11-21T04:00:24;29.65;;;10.13;;
31676;SDS011;18385;51.572;6.578;2023-11-21T04:02:52;36.05;;;10.77;;
31676;SDS011;18385;51.572;6.578;2023-11-21T04:05:17;33.85;;;9.75;;
31676;SDS011;18385;51.572;6.578;2023-11-21T04:07:44;31.23;;;10.52;;
31676;SDS011;18385;51.572;6.578;2023-11-21T04:10:10;38.75;;;11.57;;
31676;SDS011;18385;51.572;6.578;2023-11-21T04:12:37;48.17;;;11.93;;
31676;SDS011;18385;51.572;6.578;2023-11-21T04:15:03;42.60;;;11.55;;
31676;SDS011;18385;51.572;6.578;2023-11-21T04:17:30;40.72;;;11.35;;
31676;SDS011;18385;51.572;6.578;2023-11-21T04:19:55;32.63;;;11.10;;
31676;SDS011;18385;51.572;6.578;2023-11-21T04:22:21;45.17;;;12.73;;
31676;SDS011;18385;51.572;6.578;2023-11-21T04:24:47;45.40;;;11.27;;
31676;SDS011;18385;51.572;6.578;2023-11-21T04:27:14;39.47;;;11.65;;
31676;SDS011;18385;51.572;6.578;2023-11-21T04:29:39;60.42;;;13.18;;
31676;SDS011;18385;51.572;6.578;2023-11-21T04:32:06;54.53;;;13.40;;
31676;SDS011;18385;51.572;6.578;2023-11-21T04:34:33;49.08;;;12.23;;
31676;SDS011;18385;51.572;6.578;2023-11-21T04:36:59;69.25;;;14.93;;
31676;SDS011;18385;51.572;6.578;2023-11-21T04:39:25;60.08;;;15.10;;
31676;SDS011;18385;51.572;6.578;2023-11-21T04:41:51;54.22;;;12.70;;
31676;SDS011;18385;51.572;6.578;2023-11-21T04:44:17;51.78;;;13.68;;
31676;SDS011;18385;51.572;6.578;2023-11-21T04:46:42;50.78;;;12.77;;
31676;SDS011;18385;51.572;6.578;2023-11-21T04:49:08;52.13;;;13.50;;
31676;SDS011;18385;51.572;6.578;2023-11-21T04:51:36;42.47;;;14.00;;
31676;SDS011;18385;51.572;6.578;2023-11-21T04:54:01;79.45;;;14.90;;
31676;SDS011;18385;51.572;6.578;2023-11-21T04:56:27;52.97;;;13.15;;
31676;SDS011;18385;51.572;6.578;2023-11-21T04:58:54;81.05;;;13.48;;
31676;SDS011;18385;51.572;6.578;2023-11-21T05:01:20;60.70;;;12.70;;
31676;SDS011;18385;51.572;6.578;2023-11-21T05:03:46;84.65;;;15.27;;
31676;SDS011;18385;51.572;6.578;2023-11-21T05:06:12;48.53;;;12.27;;
31676;SDS011;18385;51.572;6.578;2023-11-21T05:08:39;86.15;;;14.85;;
31676;SDS011;18385;51.572;6.578;2023-11-21T05:11:04;104.90;;;15.57;;
31676;SDS011;18385;51.572;6.578;2023-11-21T05:13:33;75.28;;;12.38;;
31676;SDS011;18385;51.572;6.578;2023-11-21T05:15:59;108.65;;;15.23;;
31676;SDS011;18385;51.572;6.578;2023-11-21T05:18:25;118.95;;;14.93;;
31676;SDS011;18385;51.572;6.578;2023-11-21T05:23:20;97.00;;;13.40;;
31676;SDS011;18385;51.572;6.578;2023-11-21T05:25:46;183.98;;;18.52;;
31676;SDS011;18385;51.572;6.578;2023-11-21T05:28:12;171.93;;;16.00;;
31676;SDS011;18385;51.572;6.578;2023-11-21T05:30:38;184.80;;;16.85;;
31676;SDS011;18385;51.572;6.578;2023-11-21T05:33:04;117.75;;;13.35;;
31676;SDS011;18385;51.572;6.578;2023-11-21T05:35:30;99.22;;;12.35;;
31676;SDS011;18385;51.572;6.578;2023-11-21T05:37:56;107.32;;;11.75;;
31676;SDS011;18385;51.572;6.578;2023-11-21T05:40:22;111.18;;;12.30;;
31676;SDS011;18385;51.572;6.578;2023-11-21T05:42:48;104.18;;;12.90;;
31676;SDS011;18385;51.572;6.578;2023-11-21T05:45:13;98.20;;;12.23;;
31676;SDS011;18385;51.572;6.578;2023-11-21T05:47:44;106.65;;;13.27;;
31676;SDS011;18385;51.572;6.578;2023-11-21T05:50:14;114.97;;;12.35;;
31676;SDS011;18385;51.572;6.578;2023-11-21T05:52:41;91.57;;;13.10;;
31676;SDS011;18385;51.572;6.578;2023-11-21T05:55:08;123.65;;;13.68;;
31676;SDS011;18385;51.572;6.578;2023-11-21T05:57:34;100.20;;;11.88;;
31676;SDS011;18385;51.572;6.578;2023-11-21T06:02:36;140.30;;;12.70;;
31676;SDS011;18385;51.572;6.578;2023-11-21T06:05:03;87.38;;;12.57;;
31676;SDS011;18385;51.572;6.578;2023-11-21T06:07:29;80.53;;;13.07;;
31676;SDS011;18385;51.572;6.578;2023-11-21T06:09:55;86.10;;;12.50;;
31676;SDS011;18385;51.572;6.578;2023-11-21T06:12:20;133.80;;;15.75;;
31676;SDS011;18385;51.572;6.578;2023-11-21T06:14:46;102.13;;;13.52;;
31676;SDS011;18385;51.572;6.578;2023-11-21T06:17:13;74.57;;;10.15;;
31676;SDS011;18385;51.572;6.578;2023-11-21T06:19:39;137.80;;;16.38;;
31676;SDS011;18385;51.572;6.578;2023-11-21T06:22:05;56.10;;;10.27;;
31676;SDS011;18385;51.572;6.578;2023-11-21T06:24:31;82.97;;;12.73;;
31676;SDS011;18385;51.572;6.578;2023-11-21T06:26:57;117.53;;;14.85;;
31676;SDS011;18385;51.572;6.578;2023-11-21T06:29:22;80.45;;;13.45;;
31676;SDS011;18385;51.572;6.578;2023-11-21T06:31:48;50.03;;;10.38;;
31676;SDS011;18385;51.572;6.578;2023-11-21T06:34:14;128.95;;;14.93;;
31676;SDS011;18385;51.572;6.578;2023-11-21T06:36:40;133.80;;;17.00;;
31676;SDS011;18385;51.572;6.578;2023-11-21T06:39:06;115.47;;;14.60;;
31676;SDS011;18385;51.572;6.578;2023-11-21T06:41:33;120.85;;;15.80;;
31676;SDS011;18385;51.572;6.578;2023-11-21T06:43:59;137.55;;;19.60;;
31676;SDS011;18385;51.572;6.578;2023-11-21T06:46:25;99.03;;;18.60;;
31676;SDS011;18385;51.572;6.578;2023-11-21T06:48:51;85.18;;;15.93;;
31676;SDS011;18385;51.572;6.578;2023-11-21T06:51:17;63.30;;;13.45;;
31676;SDS011;18385;51.572;6.578;2023-11-21T06:53:43;73.07;;;15.50;;
31676;SDS011;18385;51.572;6.578;2023-11-21T06:56:18;59.40;;;16.73;;
31676;SDS011;18385;51.572;6.578;2023-11-21T06:58:45;53.53;;;11.38;;
31676;SDS011;18385;51.572;6.578;2023-11-21T07:01:12;45.33;;;10.90;;
31676;SDS011;18385;51.572;6.578;2023-11-21T07:03:38;61.40;;;12.68;;
31676;SDS011;18385;51.572;6.578;2023-11-21T07:06:04;128.98;;;27.58;;
31676;SDS011;18385;51.572;6.578;2023-11-21T07:08:30;80.95;;;16.98;;
31676;SDS011;18385;51.572;6.578;2023-11-21T07:10:56;86.75;;;13.93;;
31676;SDS011;18385;51.572;6.578;2023-11-21T07:13:22;94.05;;;17.63;;
31676;SDS011;18385;51.572;6.578;2023-11-21T07:15:48;78.55;;;15.25;;
31676;SDS011;18385;51.572;6.578;2023-11-21T07:18:14;66.82;;;12.50;;
31676;SDS011;18385;51.572;6.578;2023-11-21T07:20:40;42.80;;;11.35;;
31676;SDS011;18385;51.572;6.578;2023-11-21T07:23:05;83.40;;;13.68;;
31676;SDS011;18385;51.572;6.578;2023-11-21T07:25:31;77.45;;;13.52;;
31676;SDS011;18385;51.572;6.578;2023-11-21T07:27:58;81.15;;;14.63;;
31676;SDS011;18385;51.572;6.578;2023-11-21T07:30:25;94.78;;;15.05;;
31676;SDS011;18385;51.572;6.578;2023-11-21T07:32:51;63.45;;;11.98;;
31676;SDS011;18385;51.572;6.578;2023-11-21T07:35:17;135.60;;;18.30;;
31676;SDS011;18385;51.572;6.578;2023-11-21T07:37:42;81.20;;;14.50;;
31676;SDS011;18385;51.572;6.578;2023-11-21T07:40:08;114.20;;;16.40;;
31676;SDS011;18385;51.572;6.578;2023-11-21T07:42:36;54.90;;;12.25;;
31676;SDS011;18385;51.572;6.578;2023-11-21T07:45:04;80.47;;;13.73;;
31676;SDS011;18385;51.572;6.578;2023-11-21T07:47:32;53.45;;;11.93;;
31676;SDS011;18385;51.572;6.578;2023-11-21T07:49:59;52.80;;;12.55;;
31676;SDS011;18385;51.572;6.578;2023-11-21T07:52:28;38.30;;;11.32;;
31676;SDS011;18385;51.572;6.578;2023-11-21T07:54:53;36.33;;;9.95;;
31676;SDS011;18385;51.572;6.578;2023-11-21T07:57:19;35.60;;;8.98;;
31676;SDS011;18385;51.572;6.578;2023-11-21T07:59:45;35.22;;;8.90;;
31676;SDS011;18385;51.572;6.578;2023-11-21T08:02:10;30.50;;;9.65;;
31676;SDS011;18385;51.572;6.578;2023-11-21T08:04:36;46.28;;;9.85;;
31676;SDS011;18385;51.572;6.578;2023-11-21T08:07:02;41.10;;;10.20;;
31676;SDS011;18385;51.572;6.578;2023-11-21T08:09:28;46.78;;;10.45;;
31676;SDS011;18385;51.572;6.578;2023-11-21T08:11:55;39.22;;;10.00;;
31676;SDS011;18385;51.572;6.578;2023-11-21T08:14:21;67.80;;;10.85;;
31676;SDS011;18385;51.572;6.578;2023-11-21T08:16:50;48.00;;;10.20;;
31676;SDS011;18385;51.572;6.578;2023-11-21T08:19:16;58.80;;;11.98;;
31676;SDS011;18385;51.572;6.578;2023-11-21T08:21:43;53.92;;;12.00;;
31676;SDS011;18385;51.572;6.578;2023-11-21T08:24:10;27.30;;;9.45;;
31676;SDS011;18385;51.572;6.578;2023-11-21T08:26:36;32.55;;;9.95;;
31676;SDS011;18385;51.572;6.578;2023-11-21T08:29:02;33.60;;;10.88;;
31676;SDS011;18385;51.572;6.578;2023-11-21T08:31:28;27.88;;;9.15;;
31676;SDS011;18385;51.572;6.578;2023-11-21T08:33:54;33.92;;;9.27;;
31676;SDS011;18385;51.572;6.578;2023-11-21T08:36:23;35.33;;;9.07;;
31676;SDS011;18385;51.572;6.578;2023-11-21T08:38:50;35.05;;;10.75;;
31676;SDS011;18385;51.572;6.578;2023-11-21T08:41:17;44.22;;;10.60;;
31676;SDS011;18385;51.572;6.578;2023-11-21T08:43:47;41.13;;;10.18;;
31676;SDS011;18385;51.572;6.578;2023-11-21T08:46:14;34.30;;;10.38;;
31676;SDS011;18385;51.572;6.578;2023-11-21T08:48:40;29.55;;;9.98;;
31676;SDS011;18385;51.572;6.578;2023-11-21T08:51:06;29.85;;;9.57;;
31676;SDS011;18385;51.572;6.578;2023-11-21T08:53:34;48.15;;;10.90;;
31676;SDS011;18385;51.572;6.578;2023-11-21T08:56:00;31.67;;;10.18;;
31676;SDS011;18385;51.572;6.578;2023-11-21T08:58:26;30.00;;;10.05;;
31676;SDS011;18385;51.572;6.578;2023-11-21T09:00:52;31.83;;;10.35;;
31676;SDS011;18385;51.572;6.578;2023-11-21T09:03:18;36.03;;;11.40;;
31676;SDS011;18385;51.572;6.578;2023-11-21T09:05:43;41.10;;;12.32;;
31676;SDS011;18385;51.572;6.578;2023-11-21T09:08:09;35.00;;;11.68;;
31676;SDS011;18385;51.572;6.578;2023-11-21T09:10:35;36.05;;;10.38;;
31676;SDS011;18385;51.572;6.578;2023-11-21T09:13:02;32.47;;;10.38;;
31676;SDS011;18385;51.572;6.578;2023-11-21T09:15:27;32.05;;;11.00;;
31676;SDS011;18385;51.572;6.578;2023-11-21T09:17:53;28.45;;;10.13;;
31676;SDS011;18385;51.572;6.578;2023-11-21T09:20:19;36.92;;;11.23;;
31676;SDS011;18385;51.572;6.578;2023-11-21T09:22:47;29.80;;;10.80;;
31676;SDS011;18385;51.572;6.578;2023-11-21T09:25:14;24.25;;;9.30;;
31676;SDS011;18385;51.572;6.578;2023-11-21T09:27:40;28.50;;;9.38;;
31676;SDS011;18385;51.572;6.578;2023-11-21T09:30:06;29.48;;;10.40;;
31676;SDS011;18385;51.572;6.578;2023-11-21T09:32:35;25.27;;;9.18;;
31676;SDS011;18385;51.572;6.578;2023-11-21T09:35:06;29.02;;;9.65;;
31676;SDS011;18385;51.572;6.578;2023-11-21T09:37:34;26.35;;;8.93;;
31676;SDS011;18385;51.572;6.578;2023-11-21T09:40:03;23.23;;;8.05;;
31676;SDS011;18385;51.572;6.578;2023-11-21T09:42:31;24.83;;;9.43;;
31676;SDS011;18385;51.572;6.578;2023-11-21T09:45:05;22.65;;;8.85;;
31676;SDS011;18385;51.572;6.578;2023-11-21T09:47:54;24.40;;;9.60;;
31676;SDS011;18385;51.572;6.578;2023-11-21T09:50:23;24.52;;;10.43;;
31676;SDS011;18385;51.572;6.578;2023-11-21T09:55:32;20.90;;;9.00;;
31676;SDS011;18385;51.572;6.578;2023-11-21T09:58:04;25.88;;;9.45;;
31676;SDS011;18385;51.572;6.578;2023-11-21T10:00:33;28.90;;;9.38;;
31676;SDS011;18385;51.572;6.578;2023-11-21T10:02:59;22.27;;;8.38;;
31676;SDS011;18385;51.572;6.578;2023-11-21T10:05:25;22.88;;;8.50;;
31676;SDS011;18385;51.572;6.578;2023-11-21T10:07:51;22.52;;;10.20;;
31676;SDS011;18385;51.572;6.578;2023-11-21T10:10:18;25.55;;;10.68;;
31676;SDS011;18385;51.572;6.578;2023-11-21T10:15:18;22.25;;;9.18;;
31676;SDS011;18385;51.572;6.578;2023-11-21T10:17:46;26.30;;;10.18;;
31676;SDS011;18385;51.572;6.578;2023-11-21T10:20:14;23.17;;;9.32;;
31676;SDS011;18385;51.572;6.578;2023-11-21T10:22:42;23.60;;;9.68;;
31676;SDS011;18385;51.572;6.578;2023-11-21T10:25:08;18.70;;;8.20;;
31676;SDS011;18385;51.572;6.578;2023-11-21T10:27:36;19.52;;;9.55;;
31676;SDS011;18385;51.572;6.578;2023-11-21T10:30:04;24.63;;;9.27;;
31676;SDS011;18385;51.572;6.578;2023-11-21T10:32:30;23.50;;;9.60;;
31676;SDS011;18385;51.572;6.578;2023-11-21T10:34:59;18.40;;;8.05;;
31676;SDS011;18385;51.572;6.578;2023-11-21T10:37:25;20.13;;;8.50;;
31676;SDS011;18385;51.572;6.578;2023-11-21T10:40:02;21.67;;;7.95;;
31676;SDS011;18385;51.572;6.578;2023-11-21T10:42:31;20.77;;;8.82;;
31676;SDS011;18385;51.572;6.578;2023-11-21T10:44:57;18.88;;;8.05;;
31676;SDS011;18385;51.572;6.578;2023-11-21T10:47:23;25.42;;;10.15;;
31676;SDS011;18385;51.572;6.578;2023-11-21T10:49:49;21.08;;;9.00;;
31676;SDS011;18385;51.572;6.578;2023-11-21T10:52:15;20.50;;;9.20;;
31676;SDS011;18385;51.572;6.578;2023-11-21T10:54:42;23.35;;;9.27;;
31676;SDS011;18385;51.572;6.578;2023-11-21T10:57:08;24.80;;;9.23;;
31676;SDS011;18385;51.572;6.578;2023-11-21T10:59:36;20.45;;;9.45;;
31676;SDS011;18385;51.572;6.578;2023-11-21T11:02:07;24.25;;;10.15;;
31676;SDS011;18385;51.572;6.578;2023-11-21T11:04:53;23.77;;;9.93;;
31676;SDS011;18385;51.572;6.578;2023-11-21T11:07:21;26.75;;;10.55;;
31676;SDS011;18385;51.572;6.578;2023-11-21T11:09:50;19.02;;;8.25;;
31676;SDS011;18385;51.572;6.578;2023-11-21T11:12:17;23.35;;;9.10;;
31676;SDS011;18385;51.572;6.578;2023-11-21T11:14:44;22.08;;;8.93;;
31676;SDS011;18385;51.572;6.578;2023-11-21T11:17:10;18.98;;;8.48;;
31676;SDS011;18385;51.572;6.578;2023-11-21T11:19:36;19.17;;;8.10;;
31676;SDS011;18385;51.572;6.578;2023-11-21T11:35:33;23.70;;;9.27;;
31676;SDS011;18385;51.572;6.578;2023-11-21T11:38:06;25.30;;;9.85;;
31676;SDS011;18385;51.572;6.578;2023-11-21T11:40:45;23.98;;;9.82;;
31676;SDS011;18385;51.572;6.578;2023-11-21T11:43:11;24.87;;;10.23;;
31676;SDS011;18385;51.572;6.578;2023-11-21T11:45:37;25.48;;;10.77;;
31676;SDS011;18385;51.572;6.578;2023-11-21T11:48:07;23.92;;;10.77;;
31676;SDS011;18385;51.572;6.578;2023-11-21T11:50:33;28.65;;;9.93;;
31676;SDS011;18385;51.572;6.578;2023-11-21T11:53:15;24.02;;;9.80;;
31676;SDS011;18385;51.572;6.578;2023-11-21T11:55:41;24.83;;;9.57;;
31676;SDS011;18385;51.572;6.578;2023-11-21T11:58:07;20.55;;;9.50;;
31676;SDS011;18385;51.572;6.578;2023-11-21T12:00:33;27.50;;;9.88;;
31676;SDS011;18385;51.572;6.578;2023-11-21T12:03:03;26.58;;;10.68;;
31676;SDS011;18385;51.572;6.578;2023-11-21T12:05:33;24.42;;;10.15;;
31676;SDS011;18385;51.572;6.578;2023-11-21T12:08:07;27.17;;;10.43;;
31676;SDS011;18385;51.572;6.578;2023-11-21T12:10:34;29.30;;;11.70;;
31676;SDS011;18385;51.572;6.578;2023-11-21T12:13:07;27.52;;;10.88;;
31676;SDS011;18385;51.572;6.578;2023-11-21T12:15:35;28.70;;;12.05;;
31676;SDS011;18385;51.572;6.578;2023-11-21T12:18:01;28.83;;;11.00;;
31676;SDS011;18385;51.572;6.578;2023-11-21T12:20:29;35.88;;;12.57;;
31676;SDS011;18385;51.572;6.578;2023-11-21T12:22:59;28.67;;;12.15;;
31676;SDS011;18385;51.572;6.578;2023-11-21T12:25:25;27.88;;;10.25;;
31676;SDS011;18385;51.572;6.578;2023-11-21T12:27:57;24.20;;;9.82;;
31676;SDS011;18385;51.572;6.578;2023-11-21T12:30:24;30.08;;;10.93;;
31676;SDS011;18385;51.572;6.578;2023-11-21T12:32:58;26.75;;;9.45;;
31676;SDS011;18385;51.572;6.578;2023-11-21T12:35:26;26.10;;;9.60;;
31676;SDS011;18385;51.572;6.578;2023-11-21T12:37:54;26.25;;;9.80;;
31676;SDS011;18385;51.572;6.578;2023-11-21T12:40:22;29.23;;;10.65;;
31676;SDS011;18385;51.572;6.578;2023-11-21T12:42:49;33.10;;;11.55;;
31676;SDS011;18385;51.572;6.578;2023-11-21T12:50:20;25.73;;;10.70;;
31676;SDS011;18385;51.572;6.578;2023-11-21T12:52:49;25.70;;;10.63;;
31676;SDS011;18385;51.572;6.578;2023-11-21T12:55:21;28.80;;;10.18;;
31676;SDS011;18385;51.572;6.578;2023-11-21T13:00:17;29.45;;;11.27;;
31676;SDS011;18385;51.572;6.578;2023-11-21T13:02:53;25.70;;;10.18;;
31676;SDS011;18385;51.572;6.578;2023-11-21T13:05:29;33.10;;;11.48;;
31676;SDS011;18385;51.572;6.578;2023-11-21T13:08:00;32.00;;;11.82;;
31676;SDS011;18385;51.572;6.578;2023-11-21T13:10:32;24.85;;;10.43;;
31676;SDS011;18385;51.572;6.578;2023-11-21T13:13:01;30.77;;;11.63;;
31676;SDS011;18385;51.572;6.578;2023-11-21T13:15:39;27.70;;;10.57;;
31676;SDS011;18385;51.572;6.578;2023-11-21T13:18:08;31.15;;;11.18;;
31676;SDS011;18385;51.572;6.578;2023-11-21T13:20:36;28.75;;;11.32;;
31676;SDS011;18385;51.572;6.578;2023-11-21T13:23:06;28.40;;;11.20;;
31676;SDS011;18385;51.572;6.578;2023-11-21T13:25:33;22.95;;;9.32;;
31676;SDS011;18385;51.572;6.578;2023-11-21T13:27:59;19.23;;;8.18;;
31676;SDS011;18385;51.572;6.578;2023-11-21T13:30:28;20.95;;;7.05;;
31676;SDS011;18385;51.572;6.578;2023-11-21T13:32:58;19.85;;;7.75;;
31676;SDS011;18385;51.572;6.578;2023-11-21T13:35:31;17.90;;;7.88;;
31676;SDS011;18385;51.572;6.578;2023-11-21T13:38:10;18.63;;;6.25;;
31676;SDS011;18385;51.572;6.578;2023-11-21T13:40:40;20.50;;;7.20;;
31676;SDS011;18385;51.572;6.578;2023-11-21T13:43:11;17.45;;;6.80;;
31676;SDS011;18385;51.572;6.578;2023-11-21T13:45:42;17.70;;;7.05;;
31676;SDS011;18385;51.572;6.578;2023-11-21T13:48:09;23.65;;;6.63;;
31676;SDS011;18385;51.572;6.578;2023-11-21T13:50:45;17.73;;;7.47;;
31676;SDS011;18385;51.572;6.578;2023-11-21T13:53:23;18.85;;;7.60;;
31676;SDS011;18385;51.572;6.578;2023-11-21T13:55:52;21.08;;;7.90;;
31676;SDS011;18385;51.572;6.578;2023-11-21T13:58:20;18.92;;;7.15;;
31676;SDS011;18385;51.572;6.578;2023-11-21T14:01:00;17.95;;;6.57;;
31676;SDS011;18385;51.572;6.578;2023-11-21T14:03:30;17.15;;;7.32;;
31676;SDS011;18385;51.572;6.578;2023-11-21T14:06:17;19.60;;;6.75;;
31676;SDS011;18385;51.572;6.578;2023-11-21T14:08:49;15.20;;;6.78;;
31676;SDS011;18385;51.572;6.578;2023-11-21T14:11:15;16.85;;;6.40;;
31676;SDS011;18385;51.572;6.578;2023-11-21T14:13:43;13.77;;;5.80;;
31676;SDS011;18385;51.572;6.578;2023-11-21T14:16:13;16.25;;;6.65;;
31676;SDS011;18385;51.572;6.578;2023-11-21T14:18:39;14.05;;;5.28;;
31676;SDS011;18385;51.572;6.578;2023-11-21T14:21:17;13.73;;;5.97;;
31676;SDS011;18385;51.572;6.578;2023-11-21T14:23:43;13.63;;;6.57;;
31676;SDS011;18385;51.572;6.578;2023-11-21T14:26:10;12.57;;;6.05;;
31676;SDS011;18385;51.572;6.578;2023-11-21T14:28:39;16.57;;;6.60;;
31676;SDS011;18385;51.572;6.578;2023-11-21T14:31:04;15.52;;;6.40;;
31676;SDS011;18385;51.572;6.578;2023-11-21T14:33:30;12.63;;;6.55;;
31676;SDS011;18385;51.572;6.578;2023-11-21T14:35:56;13.50;;;5.50;;
31676;SDS011;18385;51.572;6.578;2023-11-21T14:38:22;16.15;;;6.00;;
31676;SDS011;18385;51.572;6.578;2023-11-21T14:40:48;15.27;;;5.93;;
31676;SDS011;18385;51.572;6.578;2023-11-21T14:43:14;16.08;;;6.75;;
31676;SDS011;18385;51.572;6.578;2023-11-21T14:45:41;17.25;;;6.50;;
31676;SDS011;18385;51.572;6.578;2023-11-21T14:48:06;12.38;;;5.47;;
31676;SDS011;18385;51.572;6.578;2023-11-21T14:50:41;15.57;;;6.32;;
31676;SDS011;18385;51.572;6.578;2023-11-21T14:53:11;11.73;;;4.85;;
31676;SDS011;18385;51.572;6.578;2023-11-21T14:55:38;12.45;;;5.82;;
31676;SDS011;18385;51.572;6.578;2023-11-21T14:58:04;10.68;;;5.07;;
31676;SDS011;18385;51.572;6.578;2023-11-21T15:00:30;13.05;;;5.38;;